Time;durP1;ratioP1;P1;durP2;ratioP2;P2;SDS_P1;SDS_P2;PMS_P1;PMS_P2;Temp;Humidity;BMP_temperature;BMP_pressure;BME280_temperature;BME280_humidity;BME280_pressure;Samples;Min_cycle;Max_cycle;Signal;HPM_P1;HPM_P2
2023/06/01 00:01:12;;;;;;;2.80;2.43;;;20.80;50.10;20.20;96576.00;;;;6105979;23;20512;-80
2023/06/01 00:03:39;;;;;;;2.77;2.30;;;20.80;50.20;20.20;96578.00;;;;6133429;23;20202;-80
2023/06/01 00:06:07;;;;;;;2.50;1.90;;;20.80;50.20;20.10;96579.00;;;;6101291;23;20262;-80
2023/06/01 00:08:35;;;;;;;2.23;2.03;;;20.80;50.20;20.10;96580.00;;;;6102693;23;20511;-80
2023/06/01 00:11:02;;;;;;;4.67;2.30;;;20.80;50.20;20.10;96576.00;;;;6101407;23;20221;-80
2023/06/01 00:13:30;;;;;;;3.33;2.20;;;20.80;50.30;20.10;96577.00;;;;6103850;23;20523;-80
2023/06/01 00:15:57;;;;;;;2.93;2.30;;;20.80;50.80;20.10;96574.00;;;;6101604;23;20227;-79
2023/06/01 00:18:27;;;;;;;2.40;2.20;;;20.80;50.30;20.10;96576.00;;;;6077518;23;20171;-79
2023/06/01 00:20:54;;;;;;;2.30;2.10;;;20.80;50.30;20.10;96575.00;;;;6104382;23;20179;-78
2023/06/01 00:23:22;;;;;;;4.80;2.53;;;20.80;50.20;20.10;96578.00;;;;6105142;23;20211;-79
2023/06/01 00:25:49;;;;;;;2.20;2.10;;;20.80;50.30;20.10;96575.00;;;;6105308;23;20199;-79
2023/06/01 00:28:16;;;;;;;3.70;2.43;;;20.80;50.40;20.00;96568.00;;;;6107428;23;20182;-78
2023/06/01 00:30:43;;;;;;;2.70;2.40;;;20.70;50.30;20.00;96564.00;;;;6107614;23;20259;-79
2023/06/01 00:33:11;;;;;;;1.80;1.70;;;20.70;50.40;20.00;96576.00;;;;6112973;23;20223;-79
2023/06/01 00:35:40;;;;;;;3.33;2.47;;;20.70;50.50;20.00;96567.00;;;;6110872;23;20239;-79
2023/06/01 00:38:10;;;;;;;4.50;2.43;;;20.70;51.10;20.00;96567.00;;;;6112402;23;20203;-80
2023/06/01 00:40:37;;;;;;;2.57;2.30;;;20.70;50.50;20.00;96566.00;;;;6109183;23;20168;-78
2023/06/01 00:43:05;;;;;;;2.37;2.17;;;20.70;50.50;19.90;96567.00;;;;6108799;23;20199;-79
2023/06/01 00:45:32;;;;;;;2.20;2.00;;;20.70;50.50;19.90;96567.00;;;;6110651;23;20179;-79
2023/06/01 00:48:00;;;;;;;3.20;2.50;;;20.60;51.10;19.90;96560.00;;;;6114790;23;20179;-78
2023/06/01 00:50:29;;;;;;;3.23;2.23;;;20.60;50.60;19.90;96562.00;;;;6115892;23;20226;-79
2023/06/01 00:53:01;;;;;;;3.17;2.50;;;20.60;50.80;19.80;96560.00;;;;6111633;23;20175;-79
2023/06/01 00:55:28;;;;;;;3.70;2.60;;;20.60;50.90;19.80;96558.00;;;;6106720;23;20216;-80
2023/06/01 00:57:56;;;;;;;3.33;2.40;;;20.60;50.90;19.80;96553.00;;;;6103641;23;20199;-80
2023/06/01 01:00:27;;;;;;;3.60;2.30;;;20.50;50.90;19.80;96558.00;;;;6101914;23;20213;-80
2023/06/01 01:02:56;;;;;;;2.50;1.90;;;20.50;51.10;19.70;96556.00;;;;6102887;23;20259;-79
2023/06/01 01:05:26;;;;;;;2.50;2.30;;;20.50;51.60;19.70;96556.00;;;;6111831;23;20673;-80
2023/06/01 01:08:12;;;;;;;3.83;2.23;;;20.50;51.20;19.70;96560.00;;;;6132512;23;20210;-79
2023/06/01 01:10:45;;;;;;;5.00;2.53;;;20.40;51.30;19.70;96554.00;;;;6106750;23;20551;-80
2023/06/01 01:13:20;;;;;;;3.93;2.40;;;20.40;51.10;19.60;96554.00;;;;6130688;23;20202;-80
2023/06/01 01:15:58;;;;;;;2.93;2.10;;;20.40;51.10;19.60;96555.00;;;;6129268;23;20190;-79
2023/06/01 01:18:34;;;;;;;3.37;2.37;;;20.40;51.10;19.50;96558.00;;;;6106697;23;20189;-80
2023/06/01 01:21:21;;;;;;;2.37;2.17;;;20.30;50.90;19.50;96557.00;;;;6133425;23;20182;-80
2023/06/01 01:24:21;;;;;;;4.20;2.27;;;20.30;51.00;19.50;96559.00;;;;6133512;23;20678;-80
2023/06/01 01:27:05;;;;;;;3.83;2.30;;;20.30;51.10;19.50;96564.00;;;;6086226;23;20212;-79
2023/06/01 01:29:38;;;;;;;3.47;2.43;;;20.30;51.00;19.50;96561.00;;;;6133548;23;20181;-79
2023/06/01 01:32:06;;;;;;;3.33;2.13;;;20.30;51.00;19.40;96562.00;;;;6084961;23;20178;-80
2023/06/01 01:34:34;;;;;;;3.13;2.07;;;20.20;50.90;19.40;96557.00;;;;6133393;23;20190;-80
2023/06/01 01:37:03;;;;;;;2.20;2.00;;;20.20;50.90;19.40;96561.00;;;;6107219;23;20602;-80
2023/06/01 01:39:30;;;;;;;3.57;2.30;;;20.20;51.10;19.40;96559.00;;;;6133539;23;20198;-80
2023/06/01 01:41:57;;;;;;;2.73;2.17;;;20.10;51.00;19.40;96560.00;;;;6133692;23;20181;-80
2023/06/01 01:44:25;;;;;;;3.27;1.90;;;20.10;51.10;19.30;96552.00;;;;6132925;23;20218;-80
2023/06/01 01:47:06;;;;;;;2.17;1.93;;;20.10;51.20;19.30;96547.00;;;;6107608;23;20190;-80
2023/06/01 01:49:43;;;;;;;4.60;2.40;;;20.10;51.40;19.30;96555.00;;;;6108209;23;20167;-80
2023/06/01 01:52:18;;;;;;;3.30;2.10;;;20.10;51.30;19.30;96549.00;;;;6134603;23;20214;-80
2023/06/01 01:54:48;;;;;;;3.23;2.17;;;20.10;51.30;19.20;96550.00;;;;6134571;23;20201;-79
2023/06/01 01:57:18;;;;;;;3.03;2.10;;;20.00;51.20;19.20;96544.00;;;;6133561;23;20218;-80
2023/06/01 01:59:48;;;;;;;2.67;1.87;;;20.00;51.20;19.20;96546.00;;;;6083769;23;20174;-79
2023/06/01 02:02:17;;;;;;;2.20;1.90;;;20.00;51.10;19.20;96548.00;;;;6134347;23;20210;-79
2023/06/01 02:04:46;;;;;;;3.93;1.70;;;19.90;51.10;19.10;96551.00;;;;6132136;23;20218;-80
2023/06/01 02:07:15;;;;;;;2.30;1.93;;;19.90;51.10;19.10;96548.00;;;;6134520;23;20163;-80
2023/06/01 02:09:42;;;;;;;2.30;1.77;;;19.90;51.10;19.10;96548.00;;;;6132210;23;20175;-79
2023/06/01 02:12:11;;;;;;;2.50;2.10;;;19.90;51.00;19.10;96550.00;;;;6082911;23;20175;-79
2023/06/01 02:14:38;;;;;;;3.67;2.13;;;19.90;51.10;19.10;96540.00;;;;6083400;23;20194;-80
2023/06/01 02:17:07;;;;;;;2.30;1.93;;;19.80;51.10;19.10;96542.00;;;;6082593;23;20205;-79
2023/06/01 02:19:35;;;;;;;2.93;2.13;;;19.80;51.10;19.00;96544.00;;;;6106790;23;20179;-79
2023/06/01 02:22:03;;;;;;;3.13;2.30;;;19.80;51.10;19.00;96536.00;;;;6132929;23;20202;-80
2023/06/01 02:24:31;;;;;;;2.33;2.00;;;19.80;51.10;19.00;96533.00;;;;6134988;23;20582;-79
2023/06/01 02:26:58;;;;;;;2.33;1.80;;;19.80;51.30;19.00;96532.00;;;;6135997;23;20175;-80
2023/06/01 02:29:25;;;;;;;3.63;1.70;;;19.80;51.40;19.00;96533.00;;;;6108640;23;20175;-79
2023/06/01 02:31:53;;;;;;;2.27;2.07;;;19.70;51.40;18.90;96531.00;;;;6137305;23;20197;-80
2023/06/01 02:34:21;;;;;;;3.00;2.10;;;19.70;51.50;18.90;96539.00;;;;6137162;23;20195;-80
2023/06/01 02:36:50;;;;;;;2.33;1.80;;;19.70;51.60;18.90;96531.00;;;;6136734;23;20194;-80
2023/06/01 02:39:18;;;;;;;2.33;2.00;;;19.70;51.70;18.90;96533.00;;;;6086154;23;20181;-79
2023/06/01 02:41:45;;;;;;;2.20;2.00;;;19.70;51.70;18.90;96531.00;;;;6137424;23;20217;-79
2023/06/01 02:44:13;;;;;;;2.97;2.00;;;19.70;51.80;18.80;96534.00;;;;6112505;23;20230;-79
2023/06/01 02:46:40;;;;;;;1.80;1.70;;;19.60;51.70;18.80;96538.00;;;;6137194;23;20639;-80
2023/06/01 02:49:08;;;;;;;2.47;1.90;;;19.60;51.70;18.80;96532.00;;;;6137309;23;20213;-79
2023/06/01 02:51:35;;;;;;;3.60;2.37;;;19.60;51.80;18.70;96530.00;;;;6112408;23;20246;-79
2023/06/01 02:54:04;;;;;;;2.37;1.77;;;19.60;51.80;18.70;96533.00;;;;6112351;23;20195;-80
2023/06/01 02:56:31;;;;;;;2.43;1.80;;;19.50;51.80;18.60;96535.00;;;;6137043;23;20174;-78
2023/06/01 02:58:58;;;;;;;2.30;1.60;;;19.50;51.70;18.50;96527.00;;;;6111873;23;20191;-78
2023/06/01 03:01:26;;;;;;;1.93;1.73;;;19.40;51.70;18.50;96522.00;;;;6111223;23;20177;-79
2023/06/01 03:03:54;;;;;;;2.07;1.83;;;19.40;51.90;18.40;96521.00;;;;6111464;23;20231;-80
2023/06/01 03:06:23;;;;;;;2.00;1.90;;;19.30;52.00;18.40;96528.00;;;;6105595;23;20214;-79
2023/06/01 03:08:50;;;;;;;2.30;1.87;;;19.30;52.10;18.40;96520.00;;;;6108305;23;20206;-79
2023/06/01 03:11:19;;;;;;;2.37;1.83;;;19.20;52.10;18.30;96524.00;;;;6111087;23;20180;-79
2023/06/01 03:13:46;;;;;;;2.43;1.80;;;19.20;52.40;18.20;96529.00;;;;6109033;23;20206;-79
2023/06/01 03:16:16;;;;;;;2.87;1.73;;;19.10;52.50;18.20;96521.00;;;;6113991;23;20474;-79
2023/06/01 03:18:45;;;;;;;3.17;1.97;;;19.10;52.50;18.20;96527.00;;;;6115741;23;20690;-79
2023/06/01 03:21:12;;;;;;;2.97;2.00;;;19.10;52.70;18.10;96527.00;;;;6112145;23;20182;-80
2023/06/01 03:23:43;;;;;;;1.87;1.77;;;19.00;52.80;18.10;96516.00;;;;6110482;23;20191;-80
2023/06/01 03:26:12;;;;;;;5.33;2.30;;;19.00;52.90;18.00;96529.00;;;;6108138;23;20167;-79
2023/06/01 03:28:41;;;;;;;1.70;1.60;;;18.90;53.00;18.00;96531.00;;;;6109523;23;20175;-79
2023/06/01 03:31:11;;;;;;;2.33;2.13;;;18.90;53.10;18.00;96530.00;;;;6108754;23;20191;-79
2023/06/01 03:33:38;;;;;;;2.37;1.70;;;18.90;53.00;17.90;96530.00;;;;6107756;23;20559;-79
2023/06/01 03:36:06;;;;;;;3.60;1.77;;;18.80;53.00;17.90;96527.00;;;;6109162;23;20179;-79
2023/06/01 03:38:34;;;;;;;2.60;2.10;;;18.80;53.20;17.80;96526.00;;;;6109298;23;20199;-79
2023/06/01 03:41:02;;;;;;;2.97;1.77;;;18.80;53.40;17.80;96526.00;;;;6109676;23;20207;-80
2023/06/01 03:43:29;;;;;;;3.30;2.00;;;18.70;53.60;17.80;96529.00;;;;6108719;23;20192;-79
2023/06/01 03:45:58;;;;;;;2.83;1.60;;;18.70;53.80;17.70;96526.00;;;;6109601;23;20273;-79
2023/06/01 03:48:25;;;;;;;3.40;1.97;;;18.70;53.90;17.70;96533.00;;;;6109409;23;20592;-79
2023/06/01 03:50:52;;;;;;;3.57;2.20;;;18.70;54.10;17.70;96533.00;;;;6111701;23;20209;-80
2023/06/01 03:53:23;;;;;;;4.60;2.20;;;18.60;54.10;17.60;96535.00;;;;6116240;23;20195;-79
2023/06/01 03:55:52;;;;;;;2.03;1.80;;;18.60;54.20;17.60;96528.00;;;;6111881;23;20176;-79
2023/06/01 03:58:20;;;;;;;3.10;1.90;;;18.60;54.10;17.60;96529.00;;;;6111108;23;20221;-79
2023/06/01 04:00:47;;;;;;;2.40;2.13;;;18.50;54.80;17.50;96529.00;;;;6106849;23;20186;-78
2023/06/01 04:03:21;;;;;;;2.20;2.00;;;18.50;54.30;17.50;96535.00;;;;6108229;23;20203;-79
2023/06/01 04:05:50;;;;;;;2.20;2.00;;;18.50;54.70;17.50;96541.00;;;;6088841;23;20193;-78
2023/06/01 04:08:19;;;;;;;3.00;2.07;;;18.40;54.70;17.40;96548.00;;;;6087930;23;20234;-79
2023/06/01 04:10:47;;;;;;;2.60;2.03;;;18.40;54.90;17.40;96542.00;;;;6112252;23;20175;-79
2023/06/01 04:13:14;;;;;;;2.50;1.90;;;18.40;55.10;17.40;96540.00;;;;6133349;23;20191;-80
2023/06/01 04:15:41;;;;;;;3.17;1.90;;;18.40;55.10;17.40;96539.00;;;;6128924;23;20193;-80
2023/06/01 04:18:08;;;;;;;2.40;2.00;;;18.30;55.00;17.30;96540.00;;;;6102699;23;20226;-81
2023/06/01 04:20:37;;;;;;;2.60;1.90;;;18.30;55.20;17.30;96543.00;;;;6129018;23;20236;-81
2023/06/01 04:23:04;;;;;;;3.50;2.10;;;18.30;55.30;17.30;96550.00;;;;6129760;23;20171;-80
2023/06/01 04:25:32;;;;;;;6.07;2.50;;;18.20;55.30;17.30;96549.00;;;;6129969;23;20591;-80
2023/06/01 04:28:00;;;;;;;1.77;1.67;;;18.20;55.50;17.20;96549.00;;;;6129678;23;20231;-80
2023/06/01 04:30:29;;;;;;;2.57;2.00;;;18.10;55.60;17.20;96549.00;;;;6130595;23;20175;-80
2023/06/01 04:32:56;;;;;;;1.97;1.87;;;18.10;55.80;17.20;96552.00;;;;6131945;23;20194;-80
2023/06/01 04:35:23;;;;;;;2.60;1.83;;;18.10;55.90;17.20;96548.00;;;;6131984;23;20258;-81
2023/06/01 04:37:52;;;;;;;3.00;1.87;;;18.10;56.00;17.20;96553.00;;;;6131469;23;20591;-80
2023/06/01 04:40:19;;;;;;;2.90;2.00;;;18.10;56.10;17.20;96548.00;;;;6131900;23;20210;-80
2023/06/01 04:42:48;;;;;;;3.40;2.10;;;18.00;56.30;17.20;96551.00;;;;6132498;23;20175;-80
2023/06/01 04:45:16;;;;;;;2.93;1.90;;;18.00;56.70;17.20;96550.00;;;;6106883;23;20177;-80
2023/06/01 04:47:46;;;;;;;3.43;2.37;;;18.00;57.00;17.20;96554.00;;;;6106579;23;20186;-80
2023/06/01 04:50:15;;;;;;;4.47;1.93;;;18.00;57.10;17.20;96548.00;;;;6106276;23;20175;-80
2023/06/01 04:52:43;;;;;;;3.53;1.90;;;18.10;57.20;17.30;96552.00;;;;6132380;23;20177;-80
2023/06/01 04:55:13;;;;;;;2.53;2.10;;;18.10;57.30;17.30;96552.00;;;;6104860;23;20685;-80
2023/06/01 04:57:44;;;;;;;3.23;1.93;;;18.10;57.50;17.40;96546.00;;;;6130571;23;20209;-80
2023/06/01 05:00:17;;;;;;;2.30;2.10;;;18.20;57.60;17.40;96559.00;;;;6082465;23;20192;-79
2023/06/01 05:02:47;;;;;;;2.77;1.97;;;18.20;57.60;17.40;96558.00;;;;6107057;23;20163;-80
2023/06/01 05:05:16;;;;;;;5.03;2.07;;;18.20;57.70;17.40;96558.00;;;;6131044;23;20178;-80
2023/06/01 05:07:44;;;;;;;2.30;2.10;;;18.30;57.70;17.50;96558.00;;;;6132403;23;20210;-80
2023/06/01 05:10:14;;;;;;;2.13;1.97;;;18.30;57.70;17.50;96551.00;;;;6107253;23;20607;-81
2023/06/01 05:12:41;;;;;;;2.20;2.00;;;18.30;57.80;17.50;96557.00;;;;6133664;23;20250;-79
2023/06/01 05:15:11;;;;;;;2.10;1.90;;;18.40;57.80;17.60;96551.00;;;;6132942;23;20530;-80
2023/06/01 05:17:38;;;;;;;2.10;1.90;;;18.30;57.90;17.60;96549.00;;;;6108804;23;20700;-80
2023/06/01 05:20:08;;;;;;;2.43;2.20;;;18.40;57.80;17.60;96554.00;;;;6134448;23;20178;-81
2023/06/01 05:22:36;;;;;;;3.00;2.10;;;18.40;57.90;17.70;96553.00;;;;6085772;23;20186;-81
2023/06/01 05:25:05;;;;;;;2.57;1.97;;;18.50;58.00;17.70;96561.00;;;;6136617;23;20191;-80
2023/06/01 05:27:34;;;;;;;2.23;2.07;;;18.50;57.90;17.80;96549.00;;;;6110218;23;20175;-80
2023/06/01 05:30:02;;;;;;;4.00;1.87;;;18.50;58.00;17.80;96550.00;;;;6135458;23;20167;-80
2023/06/01 05:32:29;;;;;;;4.00;2.60;;;18.60;58.00;17.90;96549.00;;;;6135723;23;20233;-79
2023/06/01 05:34:57;;;;;;;3.63;2.30;;;18.60;58.00;17.90;96547.00;;;;6111721;23;20560;-79
2023/06/01 05:37:24;;;;;;;4.17;2.63;;;18.60;58.00;18.00;96549.00;;;;6138729;23;20201;-80
2023/06/01 05:39:52;;;;;;;4.00;2.30;;;18.70;58.20;18.00;96554.00;;;;6140655;23;20175;-80
2023/06/01 05:42:20;;;;;;;2.47;2.27;;;18.70;57.80;18.10;96544.00;;;;6115253;23;20182;-80
2023/06/01 05:44:51;;;;;;;2.87;2.10;;;18.80;57.80;18.10;96546.00;;;;6142294;23;20227;-80
2023/06/01 05:47:18;;;;;;;3.00;2.30;;;18.80;57.80;18.20;96548.00;;;;6141840;23;20174;-79
2023/06/01 05:49:46;;;;;;;2.00;1.80;;;18.90;57.60;18.30;96558.00;;;;6116889;23;20226;-81
2023/06/01 05:52:14;;;;;;;2.27;1.63;;;18.90;57.60;18.30;96557.00;;;;6135748;23;20174;-79
2023/06/01 05:54:42;;;;;;;2.23;1.73;;;19.00;57.90;18.40;96551.00;;;;6129728;23;20190;-81
2023/06/01 05:57:09;;;;;;;1.87;1.73;;;19.10;57.70;18.50;96552.00;;;;6127435;23;20591;-80
2023/06/01 05:59:37;;;;;;;2.87;1.90;;;19.10;57.70;18.50;96559.00;;;;6127670;23;20230;-80
2023/06/01 06:02:07;;;;;;;3.80;2.73;;;19.20;57.50;18.60;96555.00;;;;6128330;23;20480;-81
2023/06/01 06:04:34;;;;;;;3.03;2.23;;;19.30;57.50;18.70;96552.00;;;;6100838;23;20927;-80
2023/06/01 06:07:02;;;;;;;2.93;2.37;;;19.30;57.40;18.80;96555.00;;;;6129267;23;20179;-78
2023/06/01 06:09:29;;;;;;;2.57;2.33;;;19.40;57.40;18.90;96555.00;;;;6131123;23;20182;-81
2023/06/01 06:11:57;;;;;;;2.40;2.20;;;19.50;57.30;18.90;96557.00;;;;6132226;23;20634;-81
2023/06/01 06:14:24;;;;;;;2.10;1.90;;;19.50;57.10;19.00;96548.00;;;;6106368;23;20198;-80
2023/06/01 06:16:51;;;;;;;2.00;1.73;;;19.60;57.00;19.10;96555.00;;;;6132948;23;20552;-81
2023/06/01 06:19:20;;;;;;;4.13;2.30;;;19.70;57.00;19.20;96557.00;;;;6105503;23;20205;-81
2023/06/01 06:21:47;;;;;;;2.60;2.40;;;19.80;57.00;19.20;96549.00;;;;6133238;23;20171;-80
2023/06/01 06:24:15;;;;;;;3.00;1.93;;;19.80;56.70;19.30;96559.00;;;;6131054;23;20568;-81
2023/06/01 06:26:42;;;;;;;2.90;2.10;;;19.90;56.60;19.40;96555.00;;;;6132242;23;20198;-80
2023/06/01 06:29:10;;;;;;;1.97;1.80;;;20.00;56.30;19.50;96561.00;;;;6082781;23;20198;-81
2023/06/01 06:31:38;;;;;;;2.90;1.80;;;20.10;56.30;19.60;96560.00;;;;6132639;23;20191;-79
2023/06/01 06:34:05;;;;;;;4.30;2.07;;;20.10;56.30;19.60;96570.00;;;;6080740;23;20220;-80
2023/06/01 06:36:33;;;;;;;3.00;2.10;;;20.20;56.40;19.70;96564.00;;;;6130395;23;20721;-79
2023/06/01 06:39:00;;;;;;;2.47;2.17;;;20.30;56.10;19.80;96562.00;;;;6131283;23;20592;-80
2023/06/01 06:41:28;;;;;;;3.10;2.00;;;20.30;56.10;19.90;96560.00;;;;6132293;23;20207;-78
2023/06/01 06:43:55;;;;;;;2.83;1.90;;;20.40;56.30;20.00;96560.00;;;;6129277;23;20249;-80
2023/06/01 06:46:23;;;;;;;2.87;1.90;;;20.50;56.10;20.10;96566.00;;;;6104493;23;20228;-80
2023/06/01 06:48:50;;;;;;;2.77;1.90;;;20.60;56.90;20.20;96565.00;;;;6127888;23;20679;-79
2023/06/01 06:51:18;;;;;;;2.33;1.83;;;20.70;56.00;20.30;96560.00;;;;6127795;23;20242;-81
2023/06/01 06:53:47;;;;;;;4.00;2.23;;;20.80;56.00;20.40;96566.00;;;;6128993;23;20233;-79
2023/06/01 06:56:15;;;;;;;2.13;1.93;;;20.90;56.10;20.50;96571.00;;;;6126604;23;20721;-78
2023/06/01 06:58:42;;;;;;;2.43;1.83;;;21.00;55.90;20.60;96565.00;;;;6126692;23;20223;-79
2023/06/01 07:01:10;;;;;;;4.43;2.10;;;21.10;55.80;20.70;96563.00;;;;6104031;23;20285;-80
2023/06/01 07:03:38;;;;;;;2.27;2.07;;;21.20;55.70;20.90;96562.00;;;;6132548;23;20191;-81
2023/06/01 07:06:06;;;;;;;1.83;1.73;;;21.30;56.00;21.00;96569.00;;;;6079294;23;20184;-81
2023/06/01 07:08:34;;;;;;;4.43;1.80;;;21.40;55.90;21.20;96577.00;;;;6103776;23;20246;-81
2023/06/01 07:11:03;;;;;;;2.50;2.00;;;21.60;55.60;21.30;96572.00;;;;6101994;23;20175;-80
2023/06/01 07:13:31;;;;;;;2.67;2.00;;;21.70;55.70;21.50;96569.00;;;;6102585;23;20196;-80
2023/06/01 07:15:58;;;;;;;3.80;2.00;;;21.80;55.60;21.60;96573.00;;;;6055736;23;20190;-80
2023/06/01 07:18:26;;;;;;;2.87;1.87;;;22.00;55.30;21.80;96570.00;;;;6104616;23;20235;-80
2023/06/01 07:20:53;;;;;;;2.90;2.10;;;22.10;55.20;21.90;96567.00;;;;6101551;23;20556;-78
2023/06/01 07:23:20;;;;;;;4.30;2.70;;;22.30;54.80;22.10;96572.00;;;;6101775;23;20195;-79
2023/06/01 07:25:48;;;;;;;2.50;1.93;;;22.40;54.60;22.20;96571.00;;;;6101520;23;20203;-79
2023/06/01 07:28:17;;;;;;;1.67;1.57;;;22.60;54.40;22.40;96567.00;;;;6102340;23;20179;-79
2023/06/01 07:30:44;;;;;;;2.73;2.10;;;22.70;53.90;22.60;96578.00;;;;6077493;23;20202;-80
2023/06/01 07:33:12;;;;;;;1.87;1.73;;;22.90;54.00;22.70;96580.00;;;;6078787;23;20758;-80
2023/06/01 07:35:39;;;;;;;2.07;1.90;;;23.00;53.80;22.90;96581.00;;;;6106161;23;20197;-79
2023/06/01 07:38:07;;;;;;;2.70;2.00;;;23.20;53.80;23.10;96582.00;;;;6103329;23;20172;-79
2023/06/01 07:40:34;;;;;;;2.13;1.97;;;23.40;53.50;23.20;96571.00;;;;6105979;23;20258;-80
2023/06/01 07:43:01;;;;;;;2.30;1.90;;;23.50;53.20;23.40;96577.00;;;;6104167;23;20199;-80
2023/06/01 07:45:30;;;;;;;4.00;1.83;;;23.70;52.80;23.50;96572.00;;;;6104262;23;20647;-80
2023/06/01 07:47:58;;;;;;;2.57;1.83;;;23.90;52.50;23.70;96580.00;;;;6099482;23;20174;-80
2023/06/01 07:50:30;;;;;;;3.67;1.97;;;24.00;52.70;23.80;96577.00;;;;6103906;23;20181;-80
2023/06/01 07:52:58;;;;;;;2.40;2.20;;;24.10;52.50;24.00;96578.00;;;;6104164;23;20175;-78
2023/06/01 07:55:25;;;;;;;3.00;2.07;;;24.30;52.00;24.20;96573.00;;;;6078606;23;20184;-81
2023/06/01 07:57:53;;;;;;;2.23;2.03;;;24.50;52.00;24.30;96574.00;;;;6105566;23;20559;-79
2023/06/01 08:00:22;;;;;;;2.00;1.90;;;24.60;51.50;24.40;96573.00;;;;6107753;23;20230;-80
2023/06/01 08:02:52;;;;;;;3.70;1.90;;;24.80;51.30;24.60;96574.00;;;;6108487;23;20179;-80
2023/06/01 08:05:20;;;;;;;1.87;1.77;;;24.90;51.10;24.70;96572.00;;;;6118096;23;20171;-80
2023/06/01 08:07:48;;;;;;;2.37;2.00;;;25.00;51.00;24.80;96573.00;;;;6137024;23;20155;-78
2023/06/01 08:10:16;;;;;;;2.40;2.20;;;25.20;50.70;25.00;96571.00;;;;6138789;23;20233;-78
2023/06/01 08:12:44;;;;;;;2.13;1.93;;;25.30;50.50;25.10;96575.00;;;;6117565;23;20175;-80
2023/06/01 08:15:12;;;;;;;3.03;1.90;;;25.40;50.30;25.20;96575.00;;;;6118639;23;20203;-80
2023/06/01 08:17:40;;;;;;;3.10;1.97;;;25.60;50.20;25.40;96583.00;;;;6117655;23;20184;-79
2023/06/01 08:20:13;;;;;;;2.60;2.40;;;25.70;49.90;25.50;96578.00;;;;6116058;23;20197;-82
2023/06/01 08:22:42;;;;;;;2.97;1.97;;;25.80;49.40;25.70;96583.00;;;;6132374;23;20202;-81
2023/06/01 08:25:09;;;;;;;2.13;1.93;;;26.00;49.30;25.80;96584.00;;;;6129859;23;20194;-81
2023/06/01 08:27:37;;;;;;;2.50;2.10;;;26.10;49.40;26.00;96579.00;;;;6129977;23;20190;-80
2023/06/01 08:30:05;;;;;;;4.70;2.00;;;26.20;48.90;26.10;96575.00;;;;6130860;23;20210;-80
2023/06/01 08:32:32;;;;;;;2.47;2.10;;;26.40;49.00;26.20;96581.00;;;;6104066;23;20576;-81
2023/06/01 08:35:00;;;;;;;3.80;2.10;;;26.50;49.00;26.40;96578.00;;;;6130295;23;20225;-79
2023/06/01 08:37:29;;;;;;;2.07;1.87;;;26.60;48.70;26.50;96571.00;;;;6130074;23;20178;-81
2023/06/01 08:39:59;;;;;;;2.20;2.00;;;26.80;48.80;26.70;96579.00;;;;6127487;23;20194;-80
2023/06/01 08:42:36;;;;;;;1.97;1.83;;;26.90;48.40;26.80;96583.00;;;;6126657;23;20257;-81
2023/06/01 08:45:07;;;;;;;2.13;2.00;;;27.10;48.50;27.00;96578.00;;;;6102576;23;20272;-80
2023/06/01 08:47:38;;;;;;;2.30;2.10;;;27.20;49.00;27.10;96574.00;;;;6127131;23;20199;-81
2023/06/01 08:50:09;;;;;;;2.17;1.97;;;27.40;48.20;27.30;96574.00;;;;6126323;23;20163;-81
2023/06/01 08:52:39;;;;;;;3.10;1.97;;;27.50;48.00;27.40;96579.00;;;;6100000;23;20167;-81
2023/06/01 08:55:08;;;;;;;2.40;2.20;;;27.60;47.60;27.60;96581.00;;;;6102459;23;20199;-80
2023/06/01 08:57:36;;;;;;;4.70;2.15;;;27.80;47.50;27.70;96584.00;;;;6104787;23;20357;-83
2023/06/01 09:00:07;;;;;;;2.63;1.95;;;27.90;47.30;27.80;96580.00;;;;6130578;23;20214;-82
2023/06/01 09:02:35;;;;;;;3.83;2.38;;;28.10;47.10;28.00;96586.00;;;;6105633;23;20179;-82
2023/06/01 09:05:03;;;;;;;2.33;1.90;;;28.20;46.80;28.10;96583.00;;;;6131783;23;20215;-81
2023/06/01 09:07:31;;;;;;;2.58;1.77;;;28.40;46.80;28.30;96577.00;;;;6129534;23;20199;-81
2023/06/01 09:10:00;;;;;;;4.30;2.03;;;28.50;46.80;28.40;96577.00;;;;6130971;23;20641;-80
2023/06/01 09:12:30;;;;;;;1.77;1.67;;;28.60;46.40;28.60;96576.00;;;;6079588;23;20809;-81
2023/06/01 09:15:16;;;;;;;3.00;1.90;;;28.80;46.30;28.80;96582.00;;;;6129660;23;20281;-81
2023/06/01 09:17:46;;;;;;;3.42;2.00;;;28.90;45.50;28.90;96577.00;;;;6128778;23;20178;-82
2023/06/01 09:20:15;;;;;;;2.45;1.90;;;29.10;45.30;29.10;96579.00;;;;6078701;23;20206;-82
2023/06/01 09:22:45;;;;;;;2.40;2.20;;;29.20;45.00;29.30;96577.00;;;;6129787;23;20194;-83
2023/06/01 09:25:15;;;;;;;2.30;2.10;;;29.50;44.60;29.40;96579.00;;;;6127021;23;20198;-82
2023/06/01 09:27:48;;;;;;;2.15;1.95;;;29.60;44.10;29.60;96578.00;;;;6129539;23;20212;-82
2023/06/01 09:30:18;;;;;;;2.58;2.17;;;29.80;43.40;29.70;96580.00;;;;6128016;23;20159;-82
2023/06/01 09:32:50;;;;;;;1.73;1.63;;;30.00;43.80;29.80;96579.00;;;;6126968;23;20253;-83
2023/06/01 09:35:18;;;;;;;1.92;1.73;;;30.20;43.20;30.00;96579.00;;;;6126223;23;20159;-82
2023/06/01 09:37:57;;;;;;;2.92;2.10;;;30.40;42.90;30.10;96574.00;;;;6125652;23;20257;-83
2023/06/01 09:40:27;;;;;;;2.78;1.77;;;30.60;41.40;30.30;96573.00;;;;6126477;23;20285;-82
2023/06/01 09:42:54;;;;;;;2.03;1.55;;;30.70;41.70;30.40;96579.00;;;;6126735;23;20186;-83
2023/06/01 09:45:23;;;;;;;2.08;1.88;;;30.90;41.90;30.50;96582.00;;;;6101210;23;20171;-81
2023/06/01 09:47:51;;;;;;;3.95;2.17;;;31.10;41.50;30.60;96580.00;;;;6098850;23;20171;-82
2023/06/01 09:50:38;;;;;;;3.03;2.17;;;31.20;40.90;30.80;96575.00;;;;6101116;23;20185;-83
2023/06/01 09:53:06;;;;;;;2.58;1.70;;;31.30;39.20;30.90;96580.00;;;;6104077;23;20191;-82
2023/06/01 09:55:35;;;;;;;2.50;2.10;;;31.50;40.40;31.10;96576.00;;;;6129876;23;20488;-82
2023/06/01 09:58:22;;;;;;;2.17;1.98;;;31.70;40.60;31.20;96573.00;;;;6129854;23;20167;-83
2023/06/01 10:00:52;;;;;;;2.58;1.75;;;31.90;39.60;31.40;96573.00;;;;6127467;23;20198;-82
2023/06/01 10:03:22;;;;;;;2.15;1.95;;;32.00;40.50;31.50;96574.00;;;;6129858;23;20570;-82
2023/06/01 10:05:50;;;;;;;2.15;1.55;;;32.20;39.70;31.60;96565.00;;;;6131006;23;20185;-82
2023/06/01 10:08:19;;;;;;;2.60;1.80;;;32.30;39.40;31.70;96557.00;;;;6103452;23;20250;-83
2023/06/01 10:10:50;;;;;;;2.40;2.10;;;32.50;38.90;31.70;96563.00;;;;6131070;23;20210;-82
2023/06/01 10:13:17;;;;;;;2.00;1.80;;;32.60;38.60;31.80;96567.00;;;;6107206;23;20199;-81
2023/06/01 10:15:45;;;;;;;3.15;1.83;;;32.60;38.40;31.80;96562.00;;;;6134045;23;20178;-82
2023/06/01 10:18:15;;;;;;;5.82;2.10;;;32.70;38.60;31.90;96562.00;;;;6057121;23;20179;-82
2023/06/01 10:20:42;;;;;;;2.05;1.90;;;32.70;38.50;32.00;96561.00;;;;6077635;23;20199;-83
2023/06/01 10:23:10;;;;;;;3.05;2.13;;;32.80;38.10;32.10;96561.00;;;;6105368;23;20199;-83
2023/06/01 10:25:43;;;;;;;2.78;2.05;;;32.80;38.50;32.20;96556.00;;;;6129068;23;20199;-83
2023/06/01 10:28:17;;;;;;;2.95;1.90;;;32.90;37.80;32.20;96560.00;;;;6128054;23;20171;-83
2023/06/01 10:30:44;;;;;;;2.38;2.17;;;32.90;37.60;32.30;96554.00;;;;6126594;23;20630;-83
2023/06/01 10:33:11;;;;;;;3.40;2.28;;;33.00;37.50;32.30;96555.00;;;;6128232;23;20253;-83
2023/06/01 10:36:04;;;;;;;3.28;1.95;;;33.00;38.50;32.40;96551.00;;;;6105417;23;20174;-83
2023/06/01 10:38:32;;;;;;;2.38;2.17;;;33.00;37.30;32.40;96550.00;;;;6130832;23;20181;-83
2023/06/01 10:41:32;;;;;;;2.45;2.15;;;33.00;37.30;32.40;96558.00;;;;6111594;23;20199;-83
2023/06/01 10:44:01;;;;;;;2.08;1.85;;;33.00;37.30;32.40;96552.00;;;;6148057;23;20179;-81
2023/06/01 10:46:43;;;;;;;2.08;1.83;;;32.90;37.80;32.40;96560.00;;;;6146246;23;20182;-83
2023/06/01 10:49:11;;;;;;;2.60;2.13;;;32.90;36.70;32.40;96552.00;;;;6142788;23;20174;-83
2023/06/01 10:51:39;;;;;;;2.25;2.05;;;32.80;36.80;32.30;96547.00;;;;6101878;23;20175;-82
2023/06/01 10:54:31;;;;;;;2.25;2.00;;;32.70;36.80;32.10;96551.00;;;;6127873;23;20222;-83
2023/06/01 10:57:25;;;;;;;2.42;2.08;;;32.60;35.70;31.80;96549.00;;;;6126619;23;20245;-83
2023/06/01 11:00:19;;;;;;;2.30;2.10;;;32.50;35.30;31.60;96548.00;;;;6102793;23;20205;-83
2023/06/01 11:02:57;;;;;;;4.25;2.08;;;32.30;36.40;31.50;96546.00;;;;6101304;23;20655;-84
2023/06/01 11:05:47;;;;;;;2.00;1.90;;;32.10;36.40;31.40;96539.00;;;;6103731;23;20220;-82